Time;durP1;ratioP1;P1;durP2;ratioP2;P2;SDS_P1;SDS_P2;PMS_P1;PMS_P2;Temp;Humidity;BMP_temperature;BMP_pressure;BME280_temperature;BME280_humidity;BME280_pressure;Samples;Min_cycle;Max_cycle;Signal;HPM_P1;HPM_P2
2022/11/13 00:01:37;;;;;;;61.63;13.85;;;2.90;99.90;;;;;;4978559;28;20042;-59
2022/11/13 00:04:03;;;;;;;50.25;14.57;;;2.90;99.90;;;;;;4984333;28;20117;-59
2022/11/13 00:06:29;;;;;;;88.20;15.05;;;2.90;99.90;;;;;;4978084;28;20034;-59
2022/11/13 00:08:54;;;;;;;113.35;17.25;;;2.90;99.90;;;;;;4978059;28;20030;-58
2022/11/13 00:11:21;;;;;;;151.95;22.30;;;3.00;99.90;;;;;;4981642;28;20023;-59
2022/11/13 00:13:47;;;;;;;99.53;16.88;;;3.00;99.90;;;;;;4980582;28;20394;-59
2022/11/13 00:16:18;;;;;;;124.55;17.45;;;3.00;99.90;;;;;;4979233;28;20104;-59
2022/11/13 00:18:44;;;;;;;92.80;16.73;;;3.00;99.90;;;;;;4975797;28;20094;-59
2022/11/13 00:21:22;;;;;;;110.40;16.33;;;2.90;99.90;;;;;;4979395;28;20382;-59
2022/11/13 00:23:48;;;;;;;128.23;17.25;;;2.90;99.90;;;;;;4982563;28;20032;-59
2022/11/13 00:26:22;;;;;;;100.13;15.07;;;2.90;99.90;;;;;;4978672;28;20030;-60
2022/11/13 00:28:59;;;;;;;136.15;15.88;;;2.90;99.90;;;;;;4976943;28;20030;-59
2022/11/13 00:31:25;;;;;;;116.40;17.58;;;2.80;99.90;;;;;;4977788;28;20434;-58
2022/11/13 00:33:51;;;;;;;117.97;17.63;;;2.80;99.90;;;;;;4976689;28;20062;-60
2022/11/13 00:36:19;;;;;;;57.72;14.40;;;2.80;99.90;;;;;;4979633;28;20815;-59
2022/11/13 00:38:45;;;;;;;111.43;14.75;;;2.80;99.90;;;;;;4977458;28;20019;-59
2022/11/13 00:41:11;;;;;;;127.03;14.68;;;2.80;99.90;;;;;;4979154;28;20041;-59
2022/11/13 00:43:37;;;;;;;56.60;13.00;;;2.70;99.90;;;;;;4976145;28;20031;-59
2022/11/13 00:46:03;;;;;;;50.75;12.48;;;2.70;99.90;;;;;;4975982;28;20030;-59
2022/11/13 00:48:29;;;;;;;172.65;15.77;;;2.60;99.90;;;;;;4978797;28;20100;-59
2022/11/13 00:50:54;;;;;;;146.52;16.02;;;2.50;99.90;;;;;;4979346;28;20426;-59
2022/11/13 00:53:20;;;;;;;210.15;16.60;;;2.50;99.90;;;;;;5010499;28;20497;-60
2022/11/13 00:55:46;;;;;;;235.45;17.27;;;2.40;99.90;;;;;;4977906;28;20137;-58
2022/11/13 00:58:13;;;;;;;220.95;17.67;;;2.40;99.90;;;;;;4979213;28;20122;-60
2022/11/13 01:00:40;;;;;;;207.73;17.23;;;2.40;99.90;;;;;;4977267;28;20043;-59
2022/11/13 01:03:05;;;;;;;178.70;16.90;;;2.30;99.90;;;;;;4977989;28;20046;-59
2022/11/13 01:05:38;;;;;;;174.02;16.92;;;2.30;99.90;;;;;;4980846;28;20155;-58
2022/11/13 01:08:04;;;;;;;158.27;16.83;;;2.30;99.90;;;;;;4978947;28;20031;-59
2022/11/13 01:10:32;;;;;;;238.48;19.27;;;2.30;99.90;;;;;;4980102;28;20126;-59
2022/11/13 01:12:57;;;;;;;130.65;16.30;;;2.30;99.90;;;;;;4971176;28;20027;-59
2022/11/13 01:15:23;;;;;;;70.70;14.20;;;2.20;99.90;;;;;;4958616;28;20057;-59
2022/11/13 01:17:49;;;;;;;155.85;17.50;;;2.20;99.90;;;;;;4959265;28;20069;-59
2022/11/13 01:20:15;;;;;;;128.93;15.98;;;2.10;99.90;;;;;;4958330;28;20042;-59
2022/11/13 01:22:40;;;;;;;123.10;15.27;;;2.00;99.90;;;;;;4957171;28;20038;-58
2022/11/13 01:25:06;;;;;;;148.77;16.88;;;2.00;99.90;;;;;;4958466;28;20035;-58
2022/11/13 01:27:35;;;;;;;255.82;21.38;;;2.00;99.90;;;;;;4958280;28;20035;-59
2022/11/13 01:30:01;;;;;;;201.45;17.48;;;1.90;99.90;;;;;;4956637;28;20049;-56
2022/11/13 01:32:26;;;;;;;133.23;17.95;;;1.80;99.90;;;;;;4963734;28;20497;-58
2022/11/13 01:34:52;;;;;;;96.03;14.43;;;1.80;99.90;;;;;;4960179;28;20528;-58
2022/11/13 01:37:18;;;;;;;105.28;15.68;;;1.80;99.90;;;;;;4958652;28;20031;-58
2022/11/13 01:39:43;;;;;;;98.60;16.92;;;1.80;99.90;;;;;;4962584;28;20047;-59
2022/11/13 01:42:09;;;;;;;93.78;15.88;;;1.80;99.90;;;;;;4962048;28;20098;-59
2022/11/13 01:44:50;;;;;;;87.60;16.13;;;1.80;99.90;;;;;;4993022;28;20483;-58
2022/11/13 01:47:17;;;;;;;157.57;20.20;;;1.90;99.90;;;;;;4963892;28;20053;-59
2022/11/13 01:49:44;;;;;;;119.95;16.27;;;1.90;99.90;;;;;;4963320;28;20039;-58
2022/11/13 01:52:16;;;;;;;185.43;18.25;;;1.90;99.90;;;;;;4958217;28;20038;-58
2022/11/13 01:54:52;;;;;;;88.13;15.32;;;1.90;99.90;;;;;;4962324;28;20038;-58
2022/11/13 01:57:19;;;;;;;104.15;16.38;;;1.90;99.90;;;;;;4975055;28;20034;-59
2022/11/13 01:59:50;;;;;;;76.18;14.93;;;1.90;99.90;;;;;;4961842;28;20050;-59
2022/11/13 02:02:16;;;;;;;80.60;16.95;;;1.90;99.90;;;;;;4962134;28;20039;-59
2022/11/13 02:04:42;;;;;;;124.43;17.55;;;1.90;99.90;;;;;;4962300;28;20387;-59
2022/11/13 02:07:14;;;;;;;79.78;15.40;;;1.90;99.90;;;;;;4961974;28;20055;-59
2022/11/13 02:09:46;;;;;;;149.07;15.85;;;1.90;99.90;;;;;;4961920;28;20028;-59
2022/11/13 02:12:20;;;;;;;58.00;14.55;;;1.80;99.90;;;;;;4962238;28;20034;-59
2022/11/13 02:14:52;;;;;;;117.97;15.13;;;1.70;99.90;;;;;;4962743;28;20086;-59
2022/11/13 02:17:29;;;;;;;115.50;13.75;;;1.70;99.90;;;;;;4979134;28;20057;-59
2022/11/13 02:19:59;;;;;;;61.85;13.50;;;1.60;99.90;;;;;;4979978;28;20030;-59
2022/11/13 02:22:46;;;;;;;83.97;14.82;;;1.60;99.90;;;;;;4980377;28;20102;-59
2022/11/13 02:25:13;;;;;;;81.40;16.17;;;1.60;99.90;;;;;;4978220;28;20034;-59
2022/11/13 02:27:45;;;;;;;55.55;13.93;;;1.60;99.90;;;;;;4979194;28;20944;-60
2022/11/13 02:30:33;;;;;;;93.20;17.55;;;1.60;99.90;;;;;;4978425;28;20547;-61
2022/11/13 02:32:59;;;;;;;75.57;16.30;;;1.60;99.90;;;;;;4986039;28;20030;-59
2022/11/13 02:35:29;;;;;;;69.82;15.00;;;1.60;99.90;;;;;;4978337;28;20094;-58
2022/11/13 02:37:56;;;;;;;93.45;15.63;;;1.50;99.90;;;;;;4980056;28;20174;-58
2022/11/13 02:40:23;;;;;;;49.13;13.52;;;1.50;99.90;;;;;;4983333;28;20034;-59
2022/11/13 02:42:49;;;;;;;46.25;16.10;;;1.60;99.90;;;;;;4979922;28;20033;-58
2022/11/13 02:45:15;;;;;;;68.32;16.83;;;1.60;99.90;;;;;;4981094;28;20027;-60
2022/11/13 02:47:40;;;;;;;62.83;15.32;;;1.60;99.90;;;;;;4978365;28;20481;-58
2022/11/13 02:50:08;;;;;;;43.40;15.15;;;1.60;99.90;;;;;;4979578;28;20037;-58
2022/11/13 02:52:33;;;;;;;60.28;14.88;;;1.60;99.90;;;;;;4979667;28;20081;-59
2022/11/13 02:54:59;;;;;;;39.30;15.07;;;1.50;99.90;;;;;;4981699;28;20101;-60
2022/11/13 02:57:24;;;;;;;67.57;14.55;;;1.50;99.90;;;;;;4977388;28;20526;-58
2022/11/13 02:59:50;;;;;;;39.03;13.15;;;1.40;99.90;;;;;;4981157;28;20030;-59
2022/11/13 03:02:16;;;;;;;47.40;14.75;;;1.40;99.90;;;;;;4981046;28;20482;-59
2022/11/13 03:04:42;;;;;;;58.22;13.95;;;1.30;99.90;;;;;;4977365;28;20027;-59
2022/11/13 03:07:07;;;;;;;50.13;14.32;;;1.30;99.90;;;;;;4976778;28;20046;-59
2022/11/13 03:09:33;;;;;;;41.83;12.27;;;1.30;99.90;;;;;;4979245;28;20053;-59
2022/11/13 03:11:59;;;;;;;53.70;14.48;;;1.30;99.90;;;;;;4980679;28;20011;-59
2022/11/13 03:14:24;;;;;;;59.58;13.55;;;1.20;99.90;;;;;;4965284;28;20158;-60
2022/11/13 03:16:50;;;;;;;62.22;14.35;;;1.20;99.90;;;;;;4981723;28;20019;-59
2022/11/13 03:19:15;;;;;;;84.05;15.40;;;1.10;99.90;;;;;;4977877;28;20030;-59
2022/11/13 03:21:41;;;;;;;72.35;13.82;;;1.10;99.90;;;;;;4981551;28;20141;-59
2022/11/13 03:24:07;;;;;;;114.28;16.98;;;1.10;99.90;;;;;;4979322;28;20121;-58
2022/11/13 03:26:32;;;;;;;154.45;16.05;;;1.10;99.90;;;;;;4977388;28;20038;-61
2022/11/13 03:28:58;;;;;;;136.50;15.88;;;1.00;99.90;;;;;;4979256;28;20491;-61
2022/11/13 03:31:23;;;;;;;111.72;15.00;;;1.00;99.90;;;;;;4977883;28;20043;-60
2022/11/13 03:33:52;;;;;;;132.20;15.20;;;1.00;99.90;;;;;;4980710;28;20042;-59
2022/11/13 03:36:18;;;;;;;187.18;17.52;;;0.90;99.90;;;;;;4979154;28;20038;-59
2022/11/13 03:38:44;;;;;;;151.48;16.85;;;0.90;99.90;;;;;;4977358;28;20150;-59
2022/11/13 03:41:09;;;;;;;132.93;15.18;;;0.90;99.90;;;;;;4975514;28;20133;-59
2022/11/13 03:43:35;;;;;;;60.42;13.88;;;0.90;99.90;;;;;;4976520;28;20113;-58
2022/11/13 03:46:01;;;;;;;127.95;14.30;;;0.80;99.90;;;;;;4980139;28;20118;-58
2022/11/13 03:48:26;;;;;;;112.00;15.18;;;0.80;99.90;;;;;;4977945;28;20033;-59
2022/11/13 03:50:54;;;;;;;121.78;17.08;;;0.80;99.90;;;;;;4982368;28;20032;-58
2022/11/13 03:53:20;;;;;;;132.85;14.85;;;0.90;99.90;;;;;;4978707;28;20149;-58
2022/11/13 03:55:46;;;;;;;91.57;15.00;;;0.80;99.90;;;;;;4980148;28;20498;-58
2022/11/13 03:58:11;;;;;;;83.95;13.63;;;0.80;99.90;;;;;;4981271;28;20045;-59
2022/11/13 04:00:39;;;;;;;66.65;13.60;;;0.70;99.90;;;;;;4980500;28;20039;-59
2022/11/13 04:03:04;;;;;;;74.18;13.93;;;0.70;99.90;;;;;;4979175;28;20081;-58
2022/11/13 04:05:30;;;;;;;35.78;13.95;;;0.70;99.90;;;;;;4979604;28;20058;-59
2022/11/13 04:07:56;;;;;;;36.80;12.20;;;0.70;99.90;;;;;;4978717;28;20077;-58
2022/11/13 04:10:22;;;;;;;70.28;14.70;;;0.60;99.90;;;;;;4978870;28;20156;-60
2022/11/13 04:12:47;;;;;;;43.13;15.07;;;0.60;99.90;;;;;;4977616;28;20118;-59
2022/11/13 04:15:13;;;;;;;68.07;15.20;;;0.50;99.90;;;;;;4978116;28;20118;-60
2022/11/13 04:17:39;;;;;;;46.45;15.57;;;0.50;99.90;;;;;;4977197;28;20394;-60
2022/11/13 04:20:05;;;;;;;38.25;14.77;;;0.50;99.90;;;;;;4974934;28;20081;-59
2022/11/13 04:22:31;;;;;;;67.68;14.38;;;0.50;99.90;;;;;;4977455;28;20022;-60
2022/11/13 04:24:56;;;;;;;87.55;16.45;;;0.50;99.90;;;;;;4978973;28;20545;-59
2022/11/13 04:27:22;;;;;;;36.95;12.65;;;0.50;99.90;;;;;;4977368;28;20114;-59
2022/11/13 04:29:48;;;;;;;38.47;14.15;;;0.50;99.90;;;;;;4979513;28;20030;-59
2022/11/13 04:32:13;;;;;;;29.90;13.77;;;0.40;99.90;;;;;;4981119;28;20038;-58
2022/11/13 04:34:39;;;;;;;48.72;15.30;;;0.40;99.90;;;;;;4978271;28;20091;-59
2022/11/13 04:37:04;;;;;;;39.33;15.32;;;0.50;99.90;;;;;;4977904;28;20034;-58
2022/11/13 04:39:30;;;;;;;37.70;14.20;;;0.50;99.90;;;;;;4978656;28;20031;-60
2022/11/13 04:44:40;;;;;;;38.53;15.82;;;0.50;99.90;;;;;;4979047;28;20065;-59
2022/11/13 04:47:05;;;;;;;104.90;16.10;;;0.60;99.90;;;;;;4978672;28;20410;-59
2022/11/13 04:49:31;;;;;;;58.30;14.68;;;0.50;99.90;;;;;;4976436;28;20062;-59
2022/11/13 04:51:56;;;;;;;55.53;14.13;;;0.50;99.90;;;;;;4974739;28;20034;-58
2022/11/13 04:54:22;;;;;;;34.25;13.38;;;0.50;99.90;;;;;;4976729;28;20031;-58
2022/11/13 04:56:48;;;;;;;39.28;14.30;;;0.40;99.90;;;;;;4976021;28;20022;-59
2022/11/13 04:59:13;;;;;;;39.45;13.55;;;0.30;99.90;;;;;;4980737;28;20038;-59
2022/11/13 05:01:39;;;;;;;41.15;13.32;;;0.30;99.90;;;;;;4984759;28;20093;-58
2022/11/13 05:04:05;;;;;;;52.35;13.70;;;0.30;99.90;;;;;;4982535;28;20033;-58
2022/11/13 05:06:30;;;;;;;71.82;13.68;;;0.20;99.90;;;;;;4984772;28;20039;-60
2022/11/13 05:08:56;;;;;;;40.78;11.38;;;0.20;99.90;;;;;;4977722;28;20034;-59
2022/11/13 05:11:21;;;;;;;45.58;13.07;;;0.10;99.90;;;;;;4983160;28;20022;-60
2022/11/13 05:13:47;;;;;;;50.15;12.30;;;0.10;99.90;;;;;;4987298;28;20022;-59
2022/11/13 05:16:14;;;;;;;40.80;12.30;;;0.10;99.90;;;;;;4985822;28;20422;-58
2022/11/13 05:18:40;;;;;;;56.88;12.55;;;0.10;99.90;;;;;;4979657;28;20030;-59
2022/11/13 05:21:07;;;;;;;62.28;13.57;;;0.10;99.90;;;;;;4982317;28;20077;-59
2022/11/13 05:23:34;;;;;;;20.65;11.63;;;0.00;99.90;;;;;;4979724;28;20237;-59
2022/11/13 05:26:05;;;;;;;68.50;13.43;;;0.10;99.90;;;;;;4979127;28;20490;-58
2022/11/13 05:28:31;;;;;;;136.43;15.18;;;0.00;99.90;;;;;;4980825;28;20590;-59
2022/11/13 05:31:14;;;;;;;111.20;14.95;;;0.00;99.90;;;;;;4979059;28;20030;-59
2022/11/13 05:33:41;;;;;;;98.55;15.93;;;0.00;99.90;;;;;;4984287;28;20041;-59
2022/11/13 05:36:08;;;;;;;119.78;14.50;;;-0.10;99.90;;;;;;4977701;28;20033;-60
2022/11/13 05:38:34;;;;;;;126.93;14.57;;;-0.10;99.90;;;;;;4988313;28;20133;-58
2022/11/13 05:41:05;;;;;;;74.60;14.35;;;-0.10;99.90;;;;;;4979788;28;20023;-59
2022/11/13 05:43:32;;;;;;;57.45;12.27;;;-0.10;99.90;;;;;;4977354;28;20035;-60
2022/11/13 05:46:19;;;;;;;79.47;13.70;;;-0.10;99.90;;;;;;4980766;28;20106;-59
2022/11/13 05:48:46;;;;;;;27.95;11.25;;;-0.10;99.90;;;;;;4981215;28;20030;-58
2022/11/13 05:51:13;;;;;;;23.88;11.52;;;-0.20;99.90;;;;;;4981780;28;21688;-59
2022/11/13 05:53:40;;;;;;;25.38;12.02;;;-0.20;99.90;;;;;;4980898;28;20050;-59
2022/11/13 05:56:12;;;;;;;24.08;12.32;;;-0.20;99.90;;;;;;4981282;28;20051;-59
2022/11/13 05:58:38;;;;;;;54.35;13.45;;;-0.30;99.90;;;;;;4978811;28;20145;-58
2022/11/13 06:01:26;;;;;;;41.58;19.48;;;-0.30;99.90;;;;;;4980534;28;20046;-58
2022/11/13 06:03:55;;;;;;;41.50;22.23;;;-0.40;99.90;;;;;;4979323;28;20042;-59
2022/11/13 06:06:21;;;;;;;17.35;11.68;;;-0.40;99.90;;;;;;4979087;28;20074;-59
2022/11/13 06:08:48;;;;;;;31.17;10.93;;;-0.40;99.90;;;;;;4982186;28;20027;-58
2022/11/13 06:11:17;;;;;;;32.33;11.02;;;-0.50;99.90;;;;;;4980572;28;20103;-58
2022/11/13 06:13:45;;;;;;;14.40;10.13;;;-0.60;99.90;;;;;;4979121;28;20035;-58
2022/11/13 06:16:14;;;;;;;15.60;11.30;;;-0.60;99.90;;;;;;4975288;28;20535;-60
2022/11/13 06:18:41;;;;;;;12.68;11.30;;;-0.70;99.90;;;;;;4979891;28;20050;-59
2022/11/13 06:21:18;;;;;;;13.63;12.32;;;-0.70;99.90;;;;;;4978678;28;20123;-60
2022/11/13 06:23:44;;;;;;;11.98;10.75;;;-0.70;99.90;;;;;;4979497;28;20037;-58
2022/11/13 06:26:24;;;;;;;11.65;10.45;;;-0.70;99.90;;;;;;4979358;28;20034;-59
2022/11/13 06:28:50;;;;;;;11.10;10.20;;;-0.80;99.90;;;;;;4981086;28;20058;-59
2022/11/13 06:31:21;;;;;;;11.27;10.32;;;-0.80;99.90;;;;;;4978896;28;20293;-58
2022/11/13 06:33:48;;;;;;;11.30;10.30;;;-0.70;99.90;;;;;;4979271;28;20526;-59
2022/11/13 06:36:19;;;;;;;11.10;10.13;;;-0.80;99.90;;;;;;4981861;28;20042;-59
2022/11/13 06:38:45;;;;;;;11.93;10.73;;;-0.80;99.90;;;;;;4982595;28;20037;-58
2022/11/13 06:41:12;;;;;;;10.63;9.80;;;-0.70;99.90;;;;;;4981143;28;20038;-58
2022/11/13 06:43:38;;;;;;;10.88;9.80;;;-0.70;99.90;;;;;;4981268;28;20054;-58
2022/11/13 06:46:07;;;;;;;10.75;9.95;;;-0.70;99.90;;;;;;4980591;28;20101;-58
2022/11/13 06:48:32;;;;;;;10.07;9.18;;;-0.70;99.90;;;;;;4983424;28;20069;-59
2022/11/13 06:51:04;;;;;;;10.48;9.60;;;-0.70;99.90;;;;;;4977785;28;20105;-59
2022/11/13 06:53:29;;;;;;;;;;;-0.70;99.90;;;;;;4981398;28;20026;-59
2022/11/13 06:55:56;;;;;;;11.82;10.65;;;-0.70;99.90;;;;;;4981693;28;19917;-58
2022/11/13 06:58:21;;;;;;;11.15;8.90;;;-0.70;99.90;;;;;;4980506;28;20049;-57
2022/11/13 07:00:47;;;;;;;11.07;9.48;;;-0.70;99.90;;;;;;4981643;28;20046;-59
2022/11/13 07:03:21;;;;;;;10.32;9.23;;;-0.70;99.90;;;;;;4980071;28;20045;-59
2022/11/13 07:05:47;;;;;;;11.05;10.05;;;-0.70;99.90;;;;;;4981275;28;20026;-59
2022/11/13 07:08:13;;;;;;;10.57;9.57;;;-0.60;99.90;;;;;;4979004;28;20044;-59
2022/11/13 07:10:39;;;;;;;10.10;9.13;;;-0.60;99.90;;;;;;4979347;28;20118;-59
2022/11/13 07:13:05;;;;;;;12.38;9.23;;;-0.50;99.90;;;;;;4983519;28;20030;-59
2022/11/13 07:15:38;;;;;;;10.30;9.40;;;-0.50;99.90;;;;;;4981490;28;20460;-58
2022/11/13 07:18:05;;;;;;;13.38;10.75;;;-0.40;99.90;;;;;;4979572;28;20033;-58
2022/11/13 07:20:32;;;;;;;11.05;9.88;;;-0.30;99.90;;;;;;4980219;28;20438;-58
2022/11/13 07:22:59;;;;;;;10.73;9.82;;;-0.30;99.90;;;;;;4978557;28;20031;-59
2022/11/13 07:25:26;;;;;;;12.10;10.90;;;-0.20;99.90;;;;;;4980561;28;20030;-59
2022/11/13 07:27:52;;;;;;;11.27;10.27;;;-0.10;99.90;;;;;;4976095;28;20027;-58
2022/11/13 07:30:18;;;;;;;12.18;10.93;;;0.00;99.90;;;;;;4977583;28;20027;-59
2022/11/13 07:32:43;;;;;;;16.08;14.57;;;0.00;99.90;;;;;;4976820;28;20023;-60
2022/11/13 07:35:10;;;;;;;12.80;11.70;;;0.10;99.90;;;;;;4981673;28;20633;-59
2022/11/13 07:37:35;;;;;;;12.02;11.02;;;0.20;99.90;;;;;;4979898;28;20037;-58
2022/11/13 07:40:02;;;;;;;14.65;13.32;;;0.30;99.90;;;;;;4977717;28;20406;-58
2022/11/13 07:42:28;;;;;;;13.35;12.18;;;0.40;99.90;;;;;;4978170;28;20029;-59
2022/11/13 07:44:54;;;;;;;12.48;11.27;;;0.40;99.90;;;;;;4980092;28;20027;-59
2022/11/13 07:47:19;;;;;;;12.98;11.75;;;0.50;99.90;;;;;;4977474;28;20385;-59
2022/11/13 07:49:45;;;;;;;13.65;12.30;;;0.60;99.90;;;;;;4977154;28;20082;-59
2022/11/13 07:52:11;;;;;;;12.98;11.73;;;0.60;99.90;;;;;;4978525;28;20028;-58
2022/11/13 07:54:36;;;;;;;12.57;11.30;;;0.70;99.90;;;;;;4979096;28;20043;-58
2022/11/13 07:57:02;;;;;;;13.10;11.90;;;0.80;99.90;;;;;;5005976;28;20499;-57
2022/11/13 07:59:27;;;;;;;11.95;10.80;;;0.80;99.90;;;;;;4983081;28;20105;-58
2022/11/13 08:01:53;;;;;;;12.70;11.43;;;0.80;99.90;;;;;;4978866;28;20047;-58
2022/11/13 08:04:19;;;;;;;11.88;10.77;;;0.90;99.90;;;;;;4977560;28;20113;-59
2022/11/13 08:06:44;;;;;;;14.35;12.20;;;1.00;99.90;;;;;;4977741;28;20096;-59
2022/11/13 08:09:10;;;;;;;13.38;12.05;;;1.00;99.90;;;;;;4984325;28;20050;-58
2022/11/13 08:11:36;;;;;;;14.32;12.95;;;1.10;99.90;;;;;;4980143;28;20464;-59
2022/11/13 08:14:01;;;;;;;12.70;11.60;;;1.20;99.90;;;;;;4979137;28;20541;-58
2022/11/13 08:16:27;;;;;;;15.35;11.32;;;1.20;99.90;;;;;;4975721;28;20023;-58
2022/11/13 08:18:53;;;;;;;13.10;11.38;;;1.30;99.90;;;;;;4979725;28;20556;-59
2022/11/13 08:21:20;;;;;;;15.93;13.20;;;1.40;99.90;;;;;;4980245;28;20037;-59
2022/11/13 08:23:46;;;;;;;14.20;12.70;;;1.40;99.90;;;;;;4978870;28;20026;-59
2022/11/13 08:26:11;;;;;;;14.05;12.57;;;1.50;99.90;;;;;;4976142;28;20104;-57
2022/11/13 08:28:38;;;;;;;12.35;11.23;;;1.50;99.90;;;;;;4981407;28;20438;-59
2022/11/13 08:31:08;;;;;;;16.23;14.05;;;1.60;99.90;;;;;;4971776;28;20466;-59
2022/11/13 08:33:33;;;;;;;14.77;13.27;;;1.70;99.90;;;;;;4972379;28;20074;-58
2022/11/13 08:35:59;;;;;;;16.73;14.93;;;1.80;99.90;;;;;;4975767;28;20386;-58
2022/11/13 08:38:26;;;;;;;20.73;14.98;;;1.80;99.90;;;;;;4977182;28;20029;-59
2022/11/13 08:40:55;;;;;;;16.67;14.55;;;1.90;99.90;;;;;;4978327;28;20126;-59
2022/11/13 08:43:21;;;;;;;21.50;15.70;;;1.90;99.90;;;;;;4983277;28;20525;-56
2022/11/13 08:45:46;;;;;;;16.23;14.10;;;2.00;99.90;;;;;;4983175;28;20065;-59
2022/11/13 08:48:13;;;;;;;15.95;14.13;;;2.20;99.90;;;;;;4979677;28;20088;-59
2022/11/13 08:50:39;;;;;;;13.82;12.52;;;2.30;99.90;;;;;;4983784;28;20541;-59
2022/11/13 08:53:05;;;;;;;12.52;11.32;;;2.60;99.90;;;;;;4983834;28;20093;-59
2022/11/13 08:55:32;;;;;;;12.40;11.23;;;2.80;99.90;;;;;;4982433;28;20054;-59
2022/11/13 08:57:59;;;;;;;11.52;9.95;;;3.30;99.90;;;;;;4981884;28;20069;-59
2022/11/13 09:00:25;;;;;;;10.55;9.45;;;4.20;99.90;;;;;;4982530;28;20043;-59
2022/11/13 09:02:55;;;;;;;7.95;7.15;;;5.00;99.90;;;;;;4979815;28;20109;-60
2022/11/13 09:05:22;;;;;;;8.00;7.20;;;6.10;99.90;;;;;;4978827;28;20039;-60
2022/11/13 09:07:48;;;;;;;7.65;7.05;;;7.30;99.90;;;;;;4977004;28;20031;-60
2022/11/13 09:10:14;;;;;;;7.30;6.43;;;8.90;99.90;;;;;;4975636;28;20031;-60
2022/11/13 09:12:40;;;;;;;5.70;5.13;;;10.60;99.90;;;;;;4981567;28;20069;-60
2022/11/13 09:15:06;;;;;;;6.15;5.65;;;12.00;99.90;;;;;;4978707;28;20049;-60
2022/11/13 09:17:32;;;;;;;6.53;6.10;;;13.10;99.90;;;;;;4982764;28;20471;-60
2022/11/13 09:19:57;;;;;;;7.05;5.32;;;14.10;99.90;;;;;;4981082;28;20031;-60
2022/11/13 09:22:23;;;;;;;5.95;5.55;;;14.90;98.70;;;;;;4984542;28;20027;-61
2022/11/13 09:24:48;;;;;;;5.85;5.35;;;14.90;93.50;;;;;;4982013;28;20808;-61
2022/11/13 09:27:14;;;;;;;4.88;4.47;;;15.20;92.70;;;;;;4981931;28;20033;-61
2022/11/13 09:29:40;;;;;;;5.85;5.45;;;15.40;91.50;;;;;;4981991;28;20035;-61
2022/11/13 09:32:05;;;;;;;5.38;4.97;;;15.90;88.20;;;;;;4981357;28;20035;-61
2022/11/13 09:34:32;;;;;;;6.15;5.65;;;16.10;87.00;;;;;;4981126;28;20031;-59
2022/11/13 09:36:58;;;;;;;7.40;6.28;;;16.50;77.40;;;;;;4979168;28;20500;-60
2022/11/13 09:39:24;;;;;;;7.32;6.57;;;16.40;78.30;;;;;;4982238;28;20418;-60
2022/11/13 09:41:58;;;;;;;8.18;7.47;;;16.20;76.60;;;;;;4982140;28;20022;-61
2022/11/13 09:44:30;;;;;;;7.20;6.70;;;16.00;82.70;;;;;;4980341;28;20039;-61
2022/11/13 09:47:01;;;;;;;6.80;6.30;;;16.00;82.00;;;;;;4981925;28;20030;-61
2022/11/13 09:49:34;;;;;;;6.15;5.65;;;16.10;81.10;;;;;;4977612;28;20069;-61
2022/11/13 09:52:12;;;;;;;5.82;5.32;;;16.10;80.20;;;;;;4982941;28;20443;-61
2022/11/13 09:54:38;;;;;;;5.05;4.55;;;16.00;82.50;;;;;;4978117;28;20027;-59
2022/11/13 09:57:12;;;;;;;5.25;4.85;;;16.00;78.50;;;;;;4983624;28;20641;-60
2022/11/13 09:59:53;;;;;;;5.10;4.70;;;15.60;92.20;;;;;;4985799;28;20026;-60
2022/11/13 10:02:32;;;;;;;5.30;4.90;;;15.50;90.80;;;;;;4983219;28;20046;-60
2022/11/13 10:05:03;;;;;;;4.80;4.38;;;15.20;94.50;;;;;;4978187;28;20030;-60
2022/11/13 10:07:32;;;;;;;;;;;14.70;99.90;;;;;;4983128;28;20067;-60
2022/11/13 10:10:26;;;;;;;5.10;4.70;;;14.60;99.90;;;;;;4980321;28;19910;-60
2022/11/13 10:12:57;;;;;;;5.32;4.88;;;14.50;99.90;;;;;;4982737;28;20487;-61
2022/11/13 10:15:23;;;;;;;5.77;5.30;;;14.60;99.90;;;;;;4979834;28;20027;-60
2022/11/13 10:18:12;;;;;;;6.00;4.82;;;14.30;99.90;;;;;;4982285;28;20269;-60
2022/11/13 10:20:47;;;;;;;5.72;5.30;;;13.90;99.90;;;;;;4978831;28;20073;-61
2022/11/13 10:23:20;;;;;;;5.82;5.43;;;13.80;99.90;;;;;;4977922;28;20023;-60
2022/11/13 10:25:46;;;;;;;5.70;5.30;;;14.00;99.90;;;;;;4983310;28;20022;-60
2022/11/13 10:28:17;;;;;;;6.50;5.97;;;13.70;99.90;;;;;;4983277;28;20622;-59
2022/11/13 10:30:44;;;;;;;5.38;4.97;;;13.30;99.90;;;;;;4983267;28;20414;-60
2022/11/13 10:33:16;;;;;;;6.22;5.72;;;13.20;99.90;;;;;;4984687;28;20022;-60
2022/11/13 10:36:00;;;;;;;5.60;5.13;;;13.00;99.90;;;;;;4983947;28;20193;-61
2022/11/13 10:38:41;;;;;;;6.60;6.00;;;12.80;99.90;;;;;;4982835;28;20038;-61
2022/11/13 10:41:14;;;;;;;6.30;5.70;;;12.60;99.90;;;;;;4979547;28;20109;-60
2022/11/13 10:44:05;;;;;;;6.22;5.72;;;12.50;99.90;;;;;;4978331;28;20038;-60
2022/11/13 10:46:31;;;;;;;6.53;5.88;;;12.40;99.90;;;;;;4975199;28;20038;-60
2022/11/13 10:49:09;;;;;;;5.85;5.35;;;12.30;99.90;;;;;;4984433;28;20114;-59
2022/11/13 10:51:35;;;;;;;6.63;6.07;;;12.20;99.90;;;;;;4986192;28;20482;-60
2022/11/13 10:54:33;;;;;;;6.35;5.85;;;12.20;99.90;;;;;;4983003;28;20054;-59
2022/11/13 10:57:02;;;;;;;8.15;7.45;;;12.20;99.90;;;;;;4977122;28;20028;-60
2022/11/13 10:59:40;;;;;;;8.45;7.75;;;12.20;99.90;;;;;;4979395;28;20462;-60
2022/11/13 11:02:21;;;;;;;8.23;7.53;;;12.20;99.90;;;;;;4978319;28;20030;-59
2022/11/13 11:04:48;;;;;;;8.68;7.97;;;12.00;99.90;;;;;;4979125;28;20426;-61
2022/11/13 11:07:13;;;;;;;7.53;6.93;;;12.10;99.90;;;;;;4981318;28;20483;-61
2022/11/13 11:09:41;;;;;;;7.75;7.03;;;12.10;99.90;;;;;;4983254;28;20034;-59
2022/11/13 11:12:22;;;;;;;7.72;6.97;;;12.20;99.90;;;;;;4982989;28;20355;-59
2022/11/13 11:15:00;;;;;;;6.68;6.18;;;12.10;99.90;;;;;;4978360;28;20025;-60
2022/11/13 11:17:49;;;;;;;6.00;5.40;;;12.10;99.90;;;;;;4979892;28;20031;-59
2022/11/13 11:20:18;;;;;;;5.15;4.65;;;12.10;99.90;;;;;;4980879;28;20065;-60
2022/11/13 11:22:46;;;;;;;5.97;5.47;;;12.20;99.90;;;;;;4982110;28;20590;-59
2022/11/13 11:25:19;;;;;;;5.50;5.00;;;12.20;99.90;;;;;;4976855;28;20434;-59
2022/11/13 11:28:01;;;;;;;5.57;5.18;;;12.40;99.90;;;;;;4978999;28;20053;-59
2022/11/13 11:30:33;;;;;;;6.05;5.45;;;12.50;99.90;;;;;;4981233;28;20034;-60
2022/11/13 11:33:16;;;;;;;6.32;5.07;;;12.60;99.90;;;;;;4979419;28;20065;-60
2022/11/13 11:36:07;;;;;;;4.72;4.32;;;12.80;99.90;;;;;;4977393;28;20021;-59
2022/11/13 11:39:00;;;;;;;4.85;4.07;;;13.00;99.90;;;;;;4980644;28;20039;-60
2022/11/13 11:41:37;;;;;;;4.28;3.88;;;13.20;99.90;;;;;;4978950;28;20690;-60
2022/11/13 11:44:30;;;;;;;4.43;4.05;;;13.40;99.90;;;;;;4978953;28;20027;-60
2022/11/13 11:46:55;;;;;;;4.55;3.92;;;13.70;99.90;;;;;;4977243;28;20054;-60
2022/11/13 11:49:24;;;;;;;4.30;3.90;;;14.00;99.90;;;;;;4982261;28;20654;-60
2022/11/13 11:51:58;;;;;;;4.38;3.90;;;14.40;99.90;;;;;;4980191;28;20054;-60
2022/11/13 11:54:50;;;;;;;4.03;3.63;;;14.70;99.90;;;;;;4984771;28;20038;-61
2022/11/13 11:57:44;;;;;;;4.05;3.72;;;15.20;99.90;;;;;;4979359;28;20053;-60
2022/11/13 12:00:21;;;;;;;3.80;3.45;;;15.70;99.90;;;;;;4981432;28;20436;-60
2022/11/13 12:02:55;;;;;;;4.10;3.58;;;16.00;99.90;;;;;;4974104;28;20057;-61
2022/11/13 12:05:29;;;;;;;4.50;3.42;;;16.40;99.90;;;;;;4978217;28;20124;-60
2022/11/13 12:08:13;;;;;;;3.33;3.03;;;16.60;99.90;;;;;;4983765;28;20053;-60
2022/11/13 12:10:49;;;;;;;4.20;3.78;;;16.70;99.90;;;;;;4979805;28;20043;-60
2022/11/13 12:13:24;;;;;;;4.10;3.33;;;16.70;98.50;;;;;;4979381;23;20050;-68
2022/11/13 12:16:46;;;;;;;3.25;2.95;;;16.80;99.90;;;;;;4990227;28;20025;-69
2022/11/13 12:19:49;;;;;;;3.42;3.13;;;16.70;98.30;;;;;;4957081;28;20081;-69
2022/11/13 12:22:20;;;;;;;3.70;3.22;;;16.90;95.80;;;;;;4992750;28;20041;-68
2022/11/13 12:25:16;;;;;;;2.97;2.78;;;16.90;96.00;;;;;;4996706;28;20037;-68
2022/11/13 12:28:04;;;;;;;2.33;2.13;;;16.90;94.10;;;;;;4990095;28;20129;-68
2022/11/13 12:31:01;;;;;;;3.50;2.58;;;17.00;82.90;;;;;;4994804;28;20049;-67
2022/11/13 12:33:36;;;;;;;2.67;2.40;;;17.00;89.50;;;;;;4995192;28;20122;-68
2022/11/13 12:36:03;;;;;;;2.35;2.15;;;17.10;91.70;;;;;;4997671;28;20022;-68
2022/11/13 12:38:36;;;;;;;2.65;1.70;;;17.10;93.00;;;;;;4995467;28;20038;-68
2022/11/13 12:41:13;;;;;;;2.80;1.60;;;17.10;90.40;;;;;;4994545;28;20033;-68
2022/11/13 12:44:02;;;;;;;2.08;1.70;;;17.20;81.30;;;;;;4995076;28;20030;-68
2022/11/13 12:46:39;;;;;;;2.00;1.80;;;17.20;85.20;;;;;;4993108;28;20113;-68
2022/11/13 12:49:33;;;;;;;2.28;1.60;;;17.20;83.00;;;;;;4996168;28;20038;-68
2022/11/13 12:52:15;;;;;;;2.28;1.55;;;17.20;86.10;;;;;;5001069;28;20026;-68
2022/11/13 12:54:41;;;;;;;2.40;1.67;;;17.30;82.20;;;;;;4993120;28;20490;-68